Loveville, Maryland
Current Conditions -  °F | °C
As of 11:05 PM on Wednesday 28 Jan 2015 (Local Time) from K2W6 Reporting Station
Clear Clear  
Wind Chill: 28°   Ceiling: Unl
Heat Index: 28°   Visibility: 10mi
Dew Point:   Wind: 3mph
Humidity: 37%   Direction: 300°WNW
Pressure: 30.35"   Gusts: NA
Location:  38.36°N, 76.69°W
Report Text: K2W6 290405Z AUTO 30003KT 10SM CLR M02/M15 A3035 RMK AO1
Loading
Personal Weather Stations






























Interactive Weather Map New forecast layout! Learn more

10-Day Weather Forecast

Advertisements
Track Severe Weather on mobile